createdAt,value
2022-10-13T00:00:52.761Z,1003.72
2022-10-13T00:01:52.691Z,1003.72
2022-10-13T00:02:52.682Z,1003.67
2022-10-13T00:03:52.680Z,1003.71
2022-10-13T00:04:52.653Z,1003.75
2022-10-13T00:05:52.691Z,1003.77
2022-10-13T00:06:52.632Z,1003.74
2022-10-13T00:07:52.630Z,1003.80
2022-10-13T00:08:52.611Z,1003.81
2022-10-13T00:09:52.600Z,1003.81
2022-10-13T00:10:52.581Z,1003.87
2022-10-13T00:11:52.590Z,1003.88
2022-10-13T00:12:52.563Z,1003.95
2022-10-13T00:13:52.562Z,1003.91
2022-10-13T00:14:52.542Z,1003.90
2022-10-13T00:15:52.530Z,1003.91
2022-10-13T00:16:52.541Z,1003.89
2022-10-13T00:17:52.511Z,1003.90
2022-10-13T00:18:52.490Z,1003.90
2022-10-13T00:19:52.480Z,1003.96
2022-10-13T00:20:52.468Z,1003.91
2022-10-13T00:21:52.460Z,1003.91
2022-10-13T00:22:52.469Z,1003.90
2022-10-13T00:23:52.441Z,1003.85
2022-10-13T00:24:52.420Z,1003.89
2022-10-13T00:25:52.410Z,1003.80
2022-10-13T00:26:52.400Z,1003.80
2022-10-13T00:27:52.390Z,1003.84
2022-10-13T00:28:53.051Z,1003.80
2022-10-13T00:29:52.369Z,1003.81
2022-10-13T00:30:52.350Z,1003.80
2022-10-13T00:31:52.340Z,1003.80
2022-10-13T00:32:52.329Z,1003.81
2022-10-13T00:33:52.358Z,1003.81
2022-10-13T00:34:52.307Z,1003.85
2022-10-13T00:35:52.299Z,1003.84
2022-10-13T00:36:52.279Z,1003.86
2022-10-13T00:37:52.269Z,1003.80
2022-10-13T00:38:52.260Z,1003.92
2022-10-13T00:39:52.268Z,1003.87
2022-10-13T00:40:52.231Z,1003.85
2022-10-13T00:41:52.230Z,1003.81
2022-10-13T00:42:52.209Z,1003.84
2022-10-13T00:43:52.209Z,1003.84
2022-10-13T00:44:52.220Z,1003.86
2022-10-13T00:45:52.179Z,1003.87
2022-10-13T00:46:52.172Z,1003.85
2022-10-13T00:47:52.158Z,1003.80
2022-10-13T00:48:52.139Z,1003.87
2022-10-13T00:49:52.139Z,1003.84
2022-10-13T00:50:52.138Z,1003.88
2022-10-13T00:51:52.121Z,1003.90
2022-10-13T00:52:52.099Z,1003.88
2022-10-13T00:53:52.098Z,1003.90
2022-10-13T00:54:52.078Z,1003.87
2022-10-13T00:55:52.090Z,1003.86
2022-10-13T00:56:52.058Z,1003.85
2022-10-13T00:57:52.048Z,1003.88
2022-10-13T00:58:52.029Z,1003.81
2022-10-13T00:59:52.028Z,1003.86
2022-10-13T01:00:52.102Z,1003.74
2022-10-13T01:01:52.029Z,1003.79
2022-10-13T01:02:51.987Z,1003.78
2022-10-13T01:03:51.998Z,1003.70
2022-10-13T01:04:51.962Z,1003.73
2022-10-13T01:05:51.957Z,1003.75
2022-10-13T01:06:51.948Z,1003.79
2022-10-13T01:07:51.981Z,1003.69
2022-10-13T01:08:51.920Z,1003.71
2022-10-13T01:09:51.917Z,1003.69
2022-10-13T01:10:51.897Z,1003.71
2022-10-13T01:11:51.888Z,1003.72
2022-10-13T01:12:51.868Z,1003.68
2022-10-13T01:13:51.897Z,1003.69
2022-10-13T01:14:51.848Z,1003.70
2022-10-13T01:15:51.846Z,1003.72
2022-10-13T01:16:51.827Z,1003.69
2022-10-13T01:17:51.821Z,1003.69
2022-10-13T01:18:51.797Z,1003.69
2022-10-13T01:19:51.819Z,1003.63
2022-10-13T01:20:51.778Z,1003.67
2022-10-13T01:21:51.767Z,1003.64
2022-10-13T01:22:51.756Z,1003.69
2022-10-13T01:23:51.757Z,1003.72
2022-10-13T01:24:51.735Z,1003.69
2022-10-13T01:25:51.737Z,1003.66
2022-10-13T01:26:51.708Z,1003.67
2022-10-13T01:27:51.699Z,1003.68
2022-10-13T01:28:51.687Z,1003.65
2022-10-13T01:29:51.677Z,1003.67
2022-10-13T01:30:51.697Z,1003.73
2022-10-13T01:31:51.656Z,1003.71
2022-10-13T01:32:51.637Z,1003.63
2022-10-13T01:33:51.637Z,1003.67
2022-10-13T01:34:51.616Z,1003.72
2022-10-13T01:35:51.607Z,1003.72
2022-10-13T01:36:51.626Z,1003.68
2022-10-13T01:37:51.586Z,1003.69
2022-10-13T01:38:51.568Z,1003.69
2022-10-13T01:39:51.565Z,1003.69
2022-10-13T01:40:51.547Z,1003.69
2022-10-13T01:41:51.537Z,1003.69
2022-10-13T01:42:51.547Z,1003.68
2022-10-13T01:43:51.530Z,1003.69
2022-10-13T01:44:51.507Z,1003.67
2022-10-13T01:45:51.498Z,1003.68
2022-10-13T01:46:51.478Z,1003.71
2022-10-13T01:47:51.468Z,1003.69
2022-10-13T01:48:51.487Z,1003.69
2022-10-13T01:49:51.448Z,1003.70
2022-10-13T01:50:51.436Z,1003.60
2022-10-13T01:51:51.436Z,1003.53
2022-10-13T01:52:51.420Z,1003.53
2022-10-13T01:53:51.415Z,1003.51
2022-10-13T01:54:51.406Z,1003.53
2022-10-13T01:55:51.376Z,1003.49
2022-10-13T01:56:51.367Z,1003.45
2022-10-13T01:57:51.365Z,1003.46
2022-10-13T01:58:51.355Z,1003.46
2022-10-13T01:59:51.356Z,1003.50
2022-10-13T02:00:51.348Z,1003.48
2022-10-13T02:01:51.315Z,1003.42
2022-10-13T02:02:51.296Z,1003.43
2022-10-13T02:03:51.296Z,1003.44
2022-10-13T02:04:51.276Z,1003.46
2022-10-13T02:05:51.287Z,1003.49
2022-10-13T02:06:51.257Z,1003.45
2022-10-13T02:07:51.246Z,1003.46
2022-10-13T02:08:51.225Z,1003.42
2022-10-13T02:09:51.228Z,1003.41
2022-10-13T02:10:51.234Z,1003.38
2022-10-13T02:11:51.206Z,1003.40
2022-10-13T02:12:51.187Z,1003.40
2022-10-13T02:13:51.186Z,1003.45
2022-10-13T02:14:51.165Z,1003.40
2022-10-13T02:15:51.156Z,1003.33
2022-10-13T02:16:51.155Z,1003.35
2022-10-13T02:17:51.138Z,1003.32
2022-10-13T02:18:51.121Z,1003.31
2022-10-13T02:19:51.108Z,1003.31
2022-10-13T02:20:51.094Z,1003.31
2022-10-13T02:21:51.123Z,1003.33
2022-10-13T02:22:51.076Z,1003.35
2022-10-13T02:23:51.074Z,1003.28
2022-10-13T02:24:51.057Z,1003.29
2022-10-13T02:25:51.046Z,1003.26
2022-10-13T02:26:51.034Z,1003.30
2022-10-13T02:27:51.145Z,1003.33
2022-10-13T02:28:51.135Z,1003.29
2022-10-13T02:29:50.996Z,1003.27
2022-10-13T02:30:50.982Z,1003.23
2022-10-13T02:31:50.973Z,1003.24
2022-10-13T02:32:50.964Z,1003.20
2022-10-13T02:33:50.984Z,1003.24
2022-10-13T02:34:50.944Z,1003.26
2022-10-13T02:35:50.933Z,1003.20
2022-10-13T02:36:50.915Z,1003.23
2022-10-13T02:37:50.904Z,1003.19
2022-10-13T02:38:50.893Z,1003.18
2022-10-13T02:39:50.905Z,1003.21
2022-10-13T02:40:50.875Z,1003.09
2022-10-13T02:41:50.862Z,1003.19
2022-10-13T02:42:50.846Z,1003.14
2022-10-13T02:43:50.845Z,1003.12
2022-10-13T02:44:50.825Z,1003.15
2022-10-13T02:45:50.833Z,1003.14
2022-10-13T02:46:50.804Z,1003.12
2022-10-13T02:47:50.797Z,1003.12
2022-10-13T02:48:50.786Z,1003.13
2022-10-13T02:49:50.774Z,1003.07
2022-10-13T02:50:50.787Z,1003.06
2022-10-13T02:51:50.754Z,1003.03
2022-10-13T02:52:50.736Z,1003.06
2022-10-13T02:53:50.734Z,1003.01
2022-10-13T02:54:50.713Z,1003.04
2022-10-13T02:55:50.704Z,1003.00
2022-10-13T02:56:50.703Z,1003.04
2022-10-13T02:57:50.676Z,1003.04
2022-10-13T02:58:50.676Z,1003.04
2022-10-13T02:59:50.655Z,1003.00
2022-10-13T03:00:50.691Z,1002.94
2022-10-13T03:01:50.655Z,1002.98
2022-10-13T03:02:50.626Z,1002.95
2022-10-13T03:03:50.614Z,1002.97
2022-10-13T03:04:50.604Z,1002.95
2022-10-13T03:05:50.586Z,1002.97
2022-10-13T03:06:50.581Z,1002.98
2022-10-13T03:07:50.575Z,1002.99
2022-10-13T03:08:50.564Z,1003.00
2022-10-13T03:09:50.544Z,1003.01
2022-10-13T03:10:50.534Z,1003.01
2022-10-13T03:11:50.514Z,1003.01
2022-10-13T03:12:50.536Z,1002.96
2022-10-13T03:13:50.495Z,1003.01
2022-10-13T03:14:50.483Z,1003.03
2022-10-13T03:15:50.475Z,1003.06
2022-10-13T03:16:50.464Z,1003.04
2022-10-13T03:17:50.453Z,1003.00
2022-10-13T03:18:50.464Z,1002.93
2022-10-13T03:19:50.425Z,1003.03
2022-10-13T03:20:50.422Z,1002.97
2022-10-13T03:21:50.416Z,1002.96
2022-10-13T03:22:50.394Z,1003.01
2022-10-13T03:23:50.414Z,1003.01
2022-10-13T03:24:50.376Z,1002.98
2022-10-13T03:25:50.362Z,1003.02
2022-10-13T03:26:50.353Z,1002.96
2022-10-13T03:27:50.334Z,1002.99
2022-10-13T03:28:50.396Z,1002.86
2022-10-13T03:29:50.364Z,1002.93
2022-10-13T03:30:50.307Z,1002.94
2022-10-13T03:31:50.291Z,1002.90
2022-10-13T03:32:50.286Z,1002.91
2022-10-13T03:33:50.274Z,1002.95
2022-10-13T03:34:50.263Z,1002.97
2022-10-13T03:35:50.263Z,1002.93
2022-10-13T03:36:50.236Z,1003.02
2022-10-13T03:37:50.214Z,1002.92
2022-10-13T03:38:50.223Z,1002.95
2022-10-13T03:39:50.203Z,1002.97
2022-10-13T03:40:50.215Z,1002.91
2022-10-13T03:41:50.178Z,1003.00
2022-10-13T03:42:50.164Z,1003.03
2022-10-13T03:43:50.154Z,1003.00
2022-10-13T03:44:55.223Z,1003.01
2022-10-13T03:45:51.153Z,1002.96
2022-10-13T03:46:50.164Z,1002.98
2022-10-13T03:47:50.108Z,1002.97
2022-10-13T03:48:50.104Z,1003.00
2022-10-13T03:49:57.128Z,1002.90
2022-10-13T03:50:50.077Z,1002.96
2022-10-13T03:51:50.107Z,1002.99
2022-10-13T03:52:50.056Z,1002.95
2022-10-13T03:53:50.048Z,1002.96
2022-10-13T03:54:50.037Z,1002.97
2022-10-13T03:55:50.017Z,1002.98
2022-10-13T03:56:50.017Z,1002.97
2022-10-13T03:57:50.018Z,1002.90
2022-10-13T03:58:49.986Z,1002.90
2022-10-13T03:59:49.968Z,1002.99
2022-10-13T04:00:49.966Z,1003.03
2022-10-13T04:01:50.007Z,1002.96
2022-10-13T04:02:49.942Z,1002.98
2022-10-13T04:03:49.951Z,1003.00
2022-10-13T04:04:49.917Z,1003.01
2022-10-13T04:05:49.908Z,1003.05
2022-10-13T04:06:49.896Z,1003.01
2022-10-13T04:07:49.877Z,1003.03
2022-10-13T04:08:49.877Z,1003.04
2022-10-13T04:09:49.885Z,1003.05
2022-10-13T04:10:49.867Z,1003.08
2022-10-13T04:11:49.830Z,1003.09
2022-10-13T04:12:49.831Z,1003.04
2022-10-13T04:13:49.819Z,1003.03
2022-10-13T04:14:49.798Z,1003.02
2022-10-13T04:15:49.806Z,1003.09
2022-10-13T04:16:49.777Z,1003.08
2022-10-13T04:17:49.808Z,1003.06
2022-10-13T04:18:49.757Z,1003.08
2022-10-13T04:19:49.747Z,1003.03
2022-10-13T04:20:49.758Z,1003.05
2022-10-13T04:21:49.729Z,1003.05
2022-10-13T04:22:49.713Z,1003.08
2022-10-13T04:23:49.697Z,1003.09
2022-10-13T04:24:49.687Z,1003.07
2022-10-13T04:25:49.667Z,1003.09
2022-10-13T04:26:49.708Z,1003.12
2022-10-13T04:27:49.647Z,1003.14
2022-10-13T04:28:49.762Z,1003.18
2022-10-13T04:29:49.667Z,1003.12
2022-10-13T04:30:49.805Z,1003.11
2022-10-13T04:31:49.625Z,1003.13
2022-10-13T04:32:49.680Z,1003.14
2022-10-13T04:33:49.587Z,1003.14
2022-10-13T04:34:49.575Z,1003.07
2022-10-13T04:35:49.556Z,1003.18
2022-10-13T04:36:49.552Z,1003.17
2022-10-13T04:37:49.556Z,1003.13
2022-10-13T04:38:49.526Z,1003.13
2022-10-13T04:39:49.507Z,1003.10
2022-10-13T04:40:49.506Z,1003.10
2022-10-13T04:41:49.496Z,1003.11
2022-10-13T04:42:49.486Z,1003.10
2022-10-13T04:43:49.495Z,1003.05
2022-10-13T04:44:49.476Z,1003.08
2022-10-13T04:45:49.446Z,1003.05
2022-10-13T04:46:49.436Z,1003.05
2022-10-13T04:47:49.416Z,1003.08
2022-10-13T04:48:49.409Z,1003.04
2022-10-13T04:49:49.416Z,1003.02
2022-10-13T04:50:49.386Z,1002.99
2022-10-13T04:51:49.368Z,1003.00
2022-10-13T04:52:49.364Z,1002.97
2022-10-13T04:53:49.349Z,1002.97
2022-10-13T04:54:49.336Z,1002.98
2022-10-13T04:55:49.336Z,1002.94
2022-10-13T04:56:49.317Z,1002.98
2022-10-13T04:57:49.305Z,1002.98
2022-10-13T04:58:49.298Z,1002.97
2022-10-13T04:59:49.276Z,1003.03
2022-10-13T05:00:49.344Z,1003.03
2022-10-13T05:01:49.258Z,1002.94
2022-10-13T05:02:49.255Z,1002.92
2022-10-13T05:03:49.263Z,1002.88
2022-10-13T05:04:49.236Z,1002.87
2022-10-13T05:05:49.214Z,1002.94
2022-10-13T05:07:16.043Z,1002.95
2022-10-13T05:07:50.186Z,1002.95
2022-10-13T05:08:49.177Z,1002.91
2022-10-13T05:09:49.166Z,1002.93
2022-10-13T05:10:49.155Z,1002.91
2022-10-13T05:11:49.144Z,1002.89
2022-10-13T05:12:49.157Z,1002.88
2022-10-13T05:13:49.168Z,1002.86
2022-10-13T05:14:49.106Z,1002.85
2022-10-13T05:15:49.098Z,1002.81
2022-10-13T05:16:49.086Z,1002.81
2022-10-13T05:17:49.076Z,1002.82
2022-10-13T05:18:49.088Z,1002.78
2022-10-13T05:19:49.046Z,1002.75
2022-10-13T05:20:49.047Z,1002.77
2022-10-13T05:21:49.048Z,1002.79
2022-10-13T05:22:49.016Z,1002.76
2022-10-13T05:23:49.006Z,1002.74
2022-10-13T05:24:49.015Z,1002.74
2022-10-13T05:25:48.995Z,1002.73
2022-10-13T05:26:48.975Z,1002.72
2022-10-13T05:27:48.974Z,1002.70
2022-10-13T05:28:48.993Z,1002.72
2022-10-13T05:29:49.447Z,1002.74
2022-10-13T05:30:48.935Z,1002.76
2022-10-13T05:31:48.915Z,1002.69
2022-10-13T05:32:53.624Z,1002.67
2022-10-13T05:33:49.928Z,1002.72
2022-10-13T05:34:48.885Z,1002.72
2022-10-13T05:35:48.883Z,1002.64
2022-10-13T05:36:48.857Z,1002.67
2022-10-13T05:37:48.844Z,1002.69
2022-10-13T05:38:48.836Z,1002.67
2022-10-13T05:39:49.092Z,1002.69
2022-10-13T05:40:48.847Z,1002.66
2022-10-13T05:41:48.796Z,1002.61
2022-10-13T05:42:48.798Z,1002.61
2022-10-13T05:43:48.775Z,1002.61
2022-10-13T05:44:48.835Z,1002.59
2022-10-13T05:45:48.755Z,1002.66
2022-10-13T05:46:48.765Z,1002.65
2022-10-13T05:47:48.727Z,1002.62
2022-10-13T05:48:48.725Z,1002.58
2022-10-13T05:49:48.706Z,1002.60
2022-10-13T05:50:48.696Z,1002.54
2022-10-13T05:51:48.686Z,1002.63
2022-10-13T05:52:48.695Z,1002.65
2022-10-13T05:53:50.357Z,1002.55
2022-10-13T05:54:48.655Z,1002.60
2022-10-13T05:55:48.635Z,1002.61
2022-10-13T05:56:48.626Z,1002.61
2022-10-13T05:57:48.617Z,1002.61
2022-10-13T05:58:48.625Z,1002.60
2022-10-13T05:59:48.589Z,1002.58
2022-10-13T06:00:48.590Z,1002.56
2022-10-13T06:01:48.621Z,1002.56
2022-10-13T06:02:48.569Z,1002.51
2022-10-13T06:03:48.549Z,1002.56
2022-10-13T06:04:48.556Z,1002.59
2022-10-13T06:05:48.546Z,1002.59
2022-10-13T06:06:48.516Z,1002.56
2022-10-13T06:07:48.506Z,1002.59
2022-10-13T06:08:48.485Z,1002.59
2022-10-13T06:09:48.475Z,1002.65
2022-10-13T06:10:48.484Z,1002.66
2022-10-13T06:11:48.456Z,1002.67
2022-10-13T06:12:48.454Z,1002.62
2022-10-13T06:13:48.427Z,1002.67
2022-10-13T06:14:48.423Z,1002.67
2022-10-13T06:15:48.426Z,1002.69
2022-10-13T06:16:48.395Z,1002.67
2022-10-13T06:17:48.385Z,1002.70
2022-10-13T06:18:48.375Z,1002.63
2022-10-13T06:19:48.355Z,1002.61
2022-10-13T06:20:48.363Z,1002.66
2022-10-13T06:21:48.365Z,1002.65
2022-10-13T06:22:48.329Z,1002.61
2022-10-13T06:23:48.315Z,1002.60
2022-10-13T06:24:48.315Z,1002.61
2022-10-13T06:25:48.293Z,1002.59
2022-10-13T06:26:48.291Z,1002.64
2022-10-13T06:27:48.285Z,1002.58
2022-10-13T06:28:51.096Z,1002.59
2022-10-13T06:29:48.246Z,1002.52
2022-10-13T06:30:48.245Z,1002.44
2022-10-13T06:31:48.225Z,1002.47
2022-10-13T06:32:48.215Z,1002.47
2022-10-13T06:33:48.223Z,1002.57
2022-10-13T06:34:48.195Z,1002.54
2022-10-13T06:35:48.184Z,1002.51
2022-10-13T06:36:48.175Z,1002.51
2022-10-13T06:37:48.166Z,1002.51
2022-10-13T06:38:48.202Z,1002.48
2022-10-13T06:39:48.137Z,1002.50
2022-10-13T06:40:48.125Z,1002.49
2022-10-13T06:41:48.111Z,1002.52
2022-10-13T06:42:48.103Z,1002.54
2022-10-13T06:43:48.086Z,1002.53
2022-10-13T06:44:48.103Z,1002.56
2022-10-13T06:45:48.065Z,1002.59
2022-10-13T06:46:48.059Z,1002.56
2022-10-13T06:47:48.047Z,1002.58
2022-10-13T06:48:48.035Z,1002.61
2022-10-13T06:49:48.015Z,1002.57
2022-10-13T06:50:48.026Z,1002.59
2022-10-13T06:51:47.995Z,1002.60
2022-10-13T06:52:47.987Z,1002.60
2022-10-13T06:53:47.974Z,1002.60
2022-10-13T06:54:47.965Z,1002.60
2022-10-13T06:55:52.246Z,1002.63
2022-10-13T06:56:47.943Z,1002.67
2022-10-13T06:57:47.931Z,1002.61
2022-10-13T06:58:47.917Z,1002.63
2022-10-13T06:59:47.906Z,1002.63
2022-10-13T07:00:47.937Z,1002.65
2022-10-13T07:01:47.895Z,1002.69
2022-10-13T07:02:47.874Z,1002.64
2022-10-13T07:03:47.865Z,1002.63
2022-10-13T07:04:47.848Z,1002.64
2022-10-13T07:05:47.835Z,1002.60
2022-10-13T07:06:47.853Z,1002.59
2022-10-13T07:07:47.812Z,1002.56
2022-10-13T07:08:47.804Z,1002.62
2022-10-13T07:09:47.785Z,1002.71
2022-10-13T07:10:47.784Z,1002.69
2022-10-13T07:11:47.777Z,1002.73
2022-10-13T07:12:47.777Z,1002.65
2022-10-13T07:13:47.847Z,1002.65
2022-10-13T07:14:47.795Z,1002.66
2022-10-13T07:15:47.727Z,1002.66
2022-10-13T07:16:47.705Z,1002.61
2022-10-13T07:17:47.694Z,1002.66
2022-10-13T07:18:47.705Z,1002.57
2022-10-13T07:19:47.674Z,1002.56
2022-10-13T07:20:47.663Z,1002.57
2022-10-13T07:21:47.654Z,1002.51
2022-10-13T07:22:47.639Z,1002.48
2022-10-13T07:23:47.633Z,1002.59
2022-10-13T07:24:47.624Z,1002.59
2022-10-13T07:25:47.604Z,1002.63
2022-10-13T07:26:47.594Z,1002.62
2022-10-13T07:27:47.584Z,1002.58
2022-10-13T07:28:47.582Z,1002.61
2022-10-13T07:29:47.585Z,1002.66
2022-10-13T07:30:47.545Z,1002.64
2022-10-13T07:31:47.534Z,1002.55
2022-10-13T07:32:47.525Z,1002.52
2022-10-13T07:33:47.515Z,1002.46
2022-10-13T07:34:47.508Z,1002.46
2022-10-13T07:35:47.544Z,1002.45
2022-10-13T07:36:47.484Z,1002.54
2022-10-13T07:37:47.550Z,1002.49
2022-10-13T07:38:47.454Z,1002.49
2022-10-13T07:39:47.456Z,1002.45
2022-10-13T07:40:47.437Z,1002.49
2022-10-13T07:41:50.870Z,1002.52
2022-10-13T07:42:47.413Z,1002.48
2022-10-13T07:43:47.405Z,1002.48
2022-10-13T07:44:47.384Z,1002.43
2022-10-13T07:45:47.377Z,1002.47
2022-10-13T07:46:47.366Z,1002.45
2022-10-13T07:47:47.376Z,1002.40
2022-10-13T07:48:47.344Z,1002.47
2022-10-13T07:49:47.335Z,1002.40
2022-10-13T07:50:47.324Z,1002.40
2022-10-13T07:51:47.314Z,1002.29
2022-10-13T07:52:47.294Z,1002.35
2022-10-13T07:53:47.313Z,1002.32
2022-10-13T07:54:47.295Z,1002.37
2022-10-13T07:55:47.265Z,1002.34
2022-10-13T07:56:47.252Z,1002.37
2022-10-13T07:57:47.244Z,1002.43
2022-10-13T07:58:47.233Z,1002.41
2022-10-13T07:59:47.234Z,1002.44
2022-10-13T08:00:47.207Z,1002.41
2022-10-13T08:01:47.240Z,1002.45
2022-10-13T08:02:47.185Z,1002.47
2022-10-13T08:03:50.133Z,1002.46
2022-10-13T08:04:47.175Z,1002.46
2022-10-13T08:05:47.154Z,1002.42
2022-10-13T08:06:47.139Z,1002.51
2022-10-13T08:07:47.130Z,1002.49
2022-10-13T08:08:47.118Z,1002.49
2022-10-13T08:09:47.105Z,1002.52
2022-10-13T08:10:47.137Z,1002.56
2022-10-13T08:11:47.083Z,1002.60
2022-10-13T08:12:47.082Z,1002.60
2022-10-13T08:13:47.064Z,1002.59
2022-10-13T08:15:47.075Z,1002.54
2022-10-13T08:16:49.917Z,1002.54
2022-10-13T08:17:48.015Z,1002.52
2022-10-13T08:18:46.997Z,1002.58
2022-10-13T08:19:46.995Z,1002.53
2022-10-13T08:20:46.975Z,1002.52
2022-10-13T08:21:59.224Z,1002.48
2022-10-13T08:22:47.973Z,1002.50
2022-10-13T08:23:46.945Z,1002.51
2022-10-13T08:24:46.935Z,1002.46
2022-10-13T08:25:46.927Z,1002.46
2022-10-13T08:26:46.906Z,1002.43
2022-10-13T08:27:51.082Z,1002.50
2022-10-13T08:29:02.927Z,1002.43
2022-10-13T08:29:47.875Z,1002.43
2022-10-13T08:30:47.030Z,1002.42
2022-10-13T08:31:46.977Z,1002.29
2022-10-13T08:32:46.844Z,1002.30
2022-10-13T08:33:46.856Z,1002.28
2022-10-13T08:34:46.815Z,1002.28
2022-10-13T08:35:46.806Z,1002.30
2022-10-13T08:36:46.797Z,1002.33
2022-10-13T08:37:46.797Z,1002.43
2022-10-13T08:38:46.766Z,1002.39
2022-10-13T08:39:46.807Z,1002.38
2022-10-13T08:40:46.748Z,1002.35
2022-10-13T08:41:46.752Z,1002.41
2022-10-13T08:42:46.728Z,1002.39
2022-10-13T08:44:24.730Z,1002.32
2022-10-13T08:45:16.117Z,1002.34
2022-10-13T08:45:47.694Z,1002.32
2022-10-13T08:46:46.676Z,1002.30
2022-10-13T08:47:46.674Z,1002.29
2022-10-13T08:48:46.658Z,1002.21
2022-10-13T08:49:46.648Z,1002.19
2022-10-13T08:50:46.656Z,1002.21
2022-10-13T08:51:46.626Z,1002.14
2022-10-13T08:52:46.606Z,1002.15
2022-10-13T08:53:46.619Z,1002.15
2022-10-13T08:54:46.591Z,1002.28
2022-10-13T08:55:46.579Z,1002.29
2022-10-13T08:56:46.586Z,1002.24
2022-10-13T08:57:46.565Z,1002.21
2022-10-13T08:58:46.549Z,1002.21
2022-10-13T08:59:46.535Z,1002.25
2022-10-13T09:00:46.517Z,1002.21
2022-10-13T09:01:46.554Z,1002.27
2022-10-13T09:02:46.518Z,1002.31
2022-10-13T09:03:46.486Z,1002.31
2022-10-13T09:04:46.474Z,1002.34
2022-10-13T09:05:46.467Z,1002.33
2022-10-13T09:06:46.464Z,1002.29
2022-10-13T09:07:46.482Z,1002.29
2022-10-13T09:08:46.447Z,1002.33
2022-10-13T09:09:46.420Z,1002.24
2022-10-13T09:10:46.407Z,1002.30
2022-10-13T09:11:46.399Z,1002.25
2022-10-13T09:12:46.376Z,1002.30
2022-10-13T09:13:46.374Z,1002.30
2022-10-13T09:14:46.380Z,1002.29
2022-10-13T09:15:46.348Z,1002.28
2022-10-13T09:16:46.346Z,1002.25
2022-10-13T09:17:46.327Z,1002.27
2022-10-13T09:18:46.308Z,1002.29
2022-10-13T09:19:46.324Z,1002.33
2022-10-13T09:20:46.304Z,1002.38
2022-10-13T09:21:46.285Z,1002.36
2022-10-13T09:22:46.267Z,1002.38
2022-10-13T09:23:46.258Z,1002.31
2022-10-13T09:24:46.244Z,1002.34
2022-10-13T09:25:46.256Z,1002.30
2022-10-13T09:26:46.218Z,1002.28
2022-10-13T09:27:46.215Z,1002.19
2022-10-13T09:28:46.319Z,1002.27
2022-10-13T09:29:46.187Z,1002.19
2022-10-13T09:30:46.176Z,1002.22
2022-10-13T09:31:46.186Z,1002.26
2022-10-13T09:32:46.155Z,1002.33
2022-10-13T09:33:46.257Z,1002.24
2022-10-13T09:34:46.128Z,1002.29
2022-10-13T09:35:46.117Z,1002.25
2022-10-13T09:36:46.127Z,1002.27
2022-10-13T09:37:46.097Z,1002.26
2022-10-13T09:38:46.084Z,1002.21
2022-10-13T09:39:46.107Z,1002.14
2022-10-13T09:40:46.059Z,1002.10
2022-10-13T09:41:46.057Z,1002.06
2022-10-13T09:42:46.087Z,1002.17
2022-10-13T09:43:46.033Z,1002.17
2022-10-13T09:44:46.017Z,1002.14
2022-10-13T09:45:46.007Z,1002.19
2022-10-13T09:46:45.988Z,1002.18
2022-10-13T09:47:45.985Z,1002.16
2022-10-13T09:48:45.998Z,1002.12
2022-10-13T09:49:54.021Z,1002.19
2022-10-13T09:50:45.949Z,1002.15
2022-10-13T09:51:45.940Z,1002.14
2022-10-13T09:52:45.920Z,1002.19
2022-10-13T09:53:45.921Z,1002.20
2022-10-13T09:54:45.920Z,1002.13
2022-10-13T09:55:45.891Z,1002.17
2022-10-13T09:56:45.871Z,1002.21
2022-10-13T09:57:45.870Z,1002.24
2022-10-13T09:59:45.872Z,1002.23
2022-10-13T10:00:45.830Z,1002.16
2022-10-13T10:01:45.824Z,1002.20
2022-10-13T10:02:45.802Z,1002.24
2022-10-13T10:03:45.832Z,1002.16
2022-10-13T10:04:45.794Z,1002.18
2022-10-13T10:05:45.799Z,1002.21
2022-10-13T10:06:45.761Z,1002.17
2022-10-13T10:07:45.761Z,1002.21
2022-10-13T10:09:01.985Z,1002.11
2022-10-13T10:09:46.734Z,1002.15
2022-10-13T10:10:45.743Z,1002.10
2022-10-13T10:11:45.711Z,1002.17
2022-10-13T10:12:45.702Z,1002.16
2022-10-13T10:13:45.681Z,1002.07
2022-10-13T10:14:45.671Z,1002.13
2022-10-13T10:15:45.661Z,1002.09
2022-10-13T10:16:45.671Z,1002.11
2022-10-13T10:17:45.642Z,1002.08
2022-10-13T10:18:45.622Z,1002.07
2022-10-13T10:19:45.620Z,1002.14
2022-10-13T10:20:45.602Z,1002.16
2022-10-13T10:21:45.593Z,1002.12
2022-10-13T10:22:45.601Z,1002.15
2022-10-13T10:23:45.572Z,1002.16
2022-10-13T10:24:45.554Z,1002.13
2022-10-13T10:25:45.552Z,1002.09
2022-10-13T10:26:45.531Z,1002.13
2022-10-13T10:27:45.537Z,1002.12
2022-10-13T10:28:45.603Z,1002.06
2022-10-13T10:29:45.502Z,1002.06
2022-10-13T10:30:45.493Z,1002.08
2022-10-13T10:31:45.480Z,1001.98
2022-10-13T10:32:45.461Z,1001.99
2022-10-13T10:33:45.482Z,1001.91
2022-10-13T10:34:45.441Z,1001.93
2022-10-13T10:35:45.435Z,1001.84
2022-10-13T10:36:45.422Z,1001.93
2022-10-13T10:37:45.413Z,1001.84
2022-10-13T10:38:45.398Z,1001.77
2022-10-13T10:39:45.413Z,1001.72
2022-10-13T10:40:45.372Z,1001.69
2022-10-13T10:41:45.366Z,1001.64
2022-10-13T10:42:49.710Z,1001.58
2022-10-13T10:43:46.343Z,1001.53
2022-10-13T10:45:45.344Z,1001.44
2022-10-13T10:46:45.306Z,1001.51
2022-10-13T10:47:45.463Z,1001.55
2022-10-13T10:48:45.282Z,1001.49
2022-10-13T10:49:45.273Z,1001.46
2022-10-13T10:50:45.264Z,1001.49
2022-10-13T10:51:45.296Z,1001.46
2022-10-13T10:52:45.255Z,1001.52
2022-10-13T10:53:45.224Z,1001.44
2022-10-13T10:54:48.311Z,1001.40
2022-10-13T10:55:45.203Z,1001.33
2022-10-13T10:56:45.193Z,1001.42
2022-10-13T10:57:45.203Z,1001.36
2022-10-13T10:58:45.164Z,1001.26
2022-10-13T10:59:49.095Z,1001.27
2022-10-13T11:00:45.146Z,1001.24
2022-10-13T11:01:45.194Z,1001.26
2022-10-13T11:02:45.124Z,1001.20
2022-10-13T11:03:45.134Z,1001.26
2022-10-13T11:04:45.105Z,1001.34
2022-10-13T11:05:45.084Z,1001.33
2022-10-13T11:06:45.083Z,1001.29
2022-10-13T11:07:45.066Z,1001.18
2022-10-13T11:08:45.044Z,1001.21
2022-10-13T11:09:45.058Z,1001.11
2022-10-13T11:10:45.024Z,1001.16
2022-10-13T11:11:45.016Z,1001.09
2022-10-13T11:12:45.005Z,1001.12
2022-10-13T11:13:44.994Z,1001.12
2022-10-13T11:14:45.003Z,1001.20
2022-10-13T11:15:44.982Z,1001.21
2022-10-13T11:16:44.977Z,1001.24
2022-10-13T11:17:44.945Z,1001.29
2022-10-13T11:18:44.936Z,1001.29
2022-10-13T11:19:44.925Z,1001.30
2022-10-13T11:20:44.925Z,1001.29
2022-10-13T11:21:44.906Z,1001.28
2022-10-13T11:22:44.894Z,1001.23
2022-10-13T11:23:44.899Z,1001.20
2022-10-13T11:24:44.865Z,1001.14
2022-10-13T11:25:44.873Z,1001.19
2022-10-13T11:26:44.845Z,1001.12
2022-10-13T11:27:44.826Z,1001.17
2022-10-13T11:28:44.853Z,1001.16
2022-10-13T11:29:44.943Z,1001.11
2022-10-13T11:30:44.800Z,1001.07
2022-10-13T11:31:44.797Z,1001.13
2022-10-13T11:32:44.776Z,1001.02
2022-10-13T11:33:44.756Z,1001.04
2022-10-13T11:34:44.758Z,1000.98
2022-10-13T11:35:44.737Z,1000.91
2022-10-13T11:36:44.767Z,1000.91
2022-10-13T11:37:51.730Z,1000.91
2022-10-13T11:38:45.707Z,1000.90
2022-10-13T11:39:44.767Z,1000.93
2022-10-13T11:40:44.687Z,1000.91
2022-10-13T11:41:44.695Z,1000.90
2022-10-13T11:42:44.709Z,1000.84
2022-10-13T11:43:44.648Z,1000.85
2022-10-13T11:44:44.638Z,1000.92
2022-10-13T11:45:44.658Z,1000.88
2022-10-13T11:46:44.628Z,1000.84
2022-10-13T11:47:44.599Z,1000.79
2022-10-13T11:48:44.619Z,1000.81
2022-10-13T11:49:44.587Z,1000.79
2022-10-13T11:50:44.590Z,1000.77
2022-10-13T11:51:44.560Z,1000.75
2022-10-13T11:52:44.556Z,1000.72
2022-10-13T11:53:44.572Z,1000.77
2022-10-13T11:54:44.529Z,1000.79
2022-10-13T11:55:44.519Z,1000.79
2022-10-13T11:56:47.562Z,1000.70
2022-10-13T11:57:44.499Z,1000.71
2022-10-13T11:58:44.489Z,1000.71
2022-10-13T11:59:44.500Z,1000.72
2022-10-13T12:00:44.468Z,1000.76
2022-10-13T12:01:44.449Z,1000.78
2022-10-13T12:02:44.466Z,1000.73
2022-10-13T12:03:44.441Z,1000.73
2022-10-13T12:04:46.656Z,1000.68
2022-10-13T12:05:44.430Z,1000.61
2022-10-13T12:06:44.400Z,1000.57
2022-10-13T12:07:44.381Z,1000.55
2022-10-13T12:08:44.371Z,1000.60